Weather at Fuentemilanos Airport

Public forecast

Using degrees Celsius for public forecast. Weather courtesy of forecast.io.

Closest aviation weather report (METAR) to Fuentemilanos Airport

Closest report is Adolfo Suárez Madrid–Barajas Airport, 39.6 nm (73.4 km) SE. Retrieved 2021/04/17 17:30 UTC (22 minutes ago):

LEMD 171730Z 01012KT 340V040 CAVOK 16/M01 Q1016 NOSIG

Closest aviation forecast (TAF) to Fuentemilanos Airport

Closest forecast is Base Aérea de Colmenar Viejo, 24.4 nm (45.2 km) ESE. Retrieved 2021/04/17 12:00 UTC (6 hours ago):

TAF LETO 171100Z 1712/1812 03008KT CAVOK TX16/1716Z TN01/1806Z TAF LECV 171100Z 1712/1812 02009KT CAVOK TX14/1716Z TN00/1806Z